aviador You're here:

LYKV Decoded Metar

KRALJEVO/LADEVCI in SERBIA
Report Time2018-01-17 05:00:00
UTC Time2018-01-17 05:13:41
Flight Rules ifr IFR
WindVRB at 01 kt
Visibility3000 m
Phenomena:Mist
Clouds:N/A
CeilingNone
Temp-6°C (ISA -20)
Dew Point-6°C (100% RH)
AAT-9.1°C
QNH1001 hPa
Density Alt-1,263 ft
Elevation694 ft
Report Wrong Elevation
Raw Report
METAR LYKV 170500Z VRB01KT 3000 BR NSC M06/M06 Q1001 NOSIG=

Extra information for LYKV:More info

Metar Taf Metar & Taf Last 4 Metars F.Rules Stats Wind Profile Meteogram Temp Stats Airport Information Weather charts Add Link Nearby VenuesMetar ALERT Operation Metar Decoded Social comments